createdAt,value
2019-03-02T00:00:37.803Z,7.10
2019-03-02T00:03:07.424Z,7.10
2019-03-02T00:05:37.438Z,7.00
2019-03-02T00:11:58.404Z,7.00
2019-03-02T00:31:48.692Z,6.90
2019-03-02T00:34:18.593Z,6.90
2019-03-02T00:36:51.083Z,6.80
2019-03-02T00:39:20.144Z,6.80
2019-03-02T00:53:12.107Z,6.70
2019-03-02T00:55:42.099Z,6.60
2019-03-02T00:58:13.021Z,6.60
2019-03-02T01:00:43.989Z,6.60
2019-03-02T01:16:29.390Z,6.80
2019-03-02T01:26:20.649Z,6.80
2019-03-02T01:35:50.497Z,6.60
2019-03-02T01:53:00.217Z,6.60
2019-03-02T01:55:31.174Z,6.60
2019-03-02T02:51:16.193Z,6.50
2019-03-02T03:41:56.485Z,6.30
2019-03-02T03:44:27.759Z,6.40
2019-03-02T03:47:00.804Z,6.40
2019-03-02T03:53:14.014Z,6.30
2019-03-02T04:10:26.081Z,6.50
2019-03-02T04:12:52.907Z,6.80
2019-03-02T04:19:20.673Z,6.70
2019-03-02T04:28:51.988Z,6.60
2019-03-02T04:31:22.004Z,6.60
2019-03-02T04:33:51.947Z,6.80
2019-03-02T04:36:21.945Z,6.80
2019-03-02T04:52:38.558Z,6.60
2019-03-02T05:12:15.827Z,6.60
2019-03-02T05:14:45.763Z,6.40
2019-03-02T05:17:16.450Z,6.40
2019-03-02T05:23:31.521Z,6.50
2019-03-02T05:52:37.217Z,6.50
2019-03-02T06:02:20.279Z,6.50
2019-03-02T06:45:13.933Z,6.10
2019-03-02T06:55:03.197Z,6.20
2019-03-02T07:04:55.115Z,6.40
2019-03-02T07:14:43.122Z,6.50
2019-03-02T07:24:39.661Z,6.50
2019-03-02T07:52:02.358Z,6.90
2019-03-02T07:54:32.362Z,7.00
2019-03-02T08:11:20.973Z,7.30
2019-03-02T08:13:51.648Z,7.30
2019-03-02T08:16:21.596Z,7.40
2019-03-02T08:22:30.433Z,7.60
2019-03-02T08:32:17.695Z,7.60
2019-03-02T08:50:49.791Z,7.90
2019-03-02T08:53:19.505Z,8.00
2019-03-02T08:55:49.432Z,7.90
2019-03-02T09:02:11.008Z,8.00
2019-03-02T09:05:17.895Z,8.10
2019-03-02T09:15:30.057Z,8.20
2019-03-02T09:17:59.011Z,8.30
2019-03-02T09:20:32.469Z,8.60
2019-03-02T09:23:01.837Z,8.60
2019-03-02T09:48:56.890Z,9.10
2019-03-02T10:02:34.889Z,8.30
2019-03-02T10:05:05.393Z,8.20
2019-03-02T10:07:38.006Z,8.50
2019-03-02T10:10:08.830Z,8.90
2019-03-02T10:12:38.819Z,9.20
2019-03-02T10:15:12.804Z,9.30
2019-03-02T10:17:43.144Z,9.10
2019-03-02T10:20:13.682Z,9.20
2019-03-02T10:57:59.228Z,8.90
2019-03-02T11:00:31.103Z,9.10
2019-03-02T11:03:00.262Z,9.20
2019-03-02T11:05:47.900Z,9.20
2019-03-02T11:08:36.942Z,9.40
2019-03-02T11:11:18.359Z,9.60
2019-03-02T11:14:05.719Z,9.40
2019-03-02T11:17:01.588Z,9.70
2019-03-02T11:19:47.407Z,9.80
2019-03-02T11:22:22.905Z,10.10
2019-03-02T11:31:19.573Z,10.50
2019-03-02T11:34:07.116Z,10.20
2019-03-02T11:37:01.804Z,10.50
2019-03-02T11:53:38.692Z,12.20
2019-03-02T11:56:25.070Z,11.90
2019-03-02T11:59:10.819Z,12.00
2019-03-02T12:02:01.040Z,12.40
2019-03-02T12:04:52.189Z,12.40
2019-03-02T12:07:34.549Z,12.60
2019-03-02T12:10:13.956Z,13.00
2019-03-02T12:16:34.236Z,12.80
2019-03-02T12:19:26.258Z,12.70
2019-03-02T13:18:22.537Z,12.30
2019-03-02T13:21:16.461Z,12.00
2019-03-02T13:24:05.412Z,11.80
2019-03-02T13:41:14.417Z,13.50
2019-03-02T13:44:05.973Z,13.60
2019-03-02T13:46:42.969Z,13.20
2019-03-02T13:49:46.817Z,12.40
2019-03-02T13:52:47.438Z,12.30
2019-03-02T13:55:24.538Z,12.10
2019-03-02T13:58:06.579Z,12.00
2019-03-02T14:00:50.503Z,11.90
2019-03-02T14:03:26.834Z,12.00
2019-03-02T14:06:14.264Z,11.90
2019-03-02T14:08:54.144Z,12.10
2019-03-02T14:11:49.093Z,11.90
2019-03-02T15:30:23.097Z,11.20
2019-03-02T15:33:00.133Z,11.30
2019-03-02T15:35:49.131Z,11.00
2019-03-02T15:38:36.333Z,10.90
2019-03-02T15:41:20.382Z,10.90
2019-03-02T15:44:24.551Z,10.90
2019-03-02T15:50:37.761Z,10.90
2019-03-02T15:53:16.218Z,10.80
2019-03-02T15:56:03.394Z,11.10
2019-03-02T15:58:49.162Z,10.90
2019-03-02T16:01:44.148Z,10.80
2019-03-02T16:08:26.897Z,10.80
2019-03-02T16:18:06.295Z,10.40
2019-03-02T16:56:21.101Z,10.30
2019-03-02T16:59:04.526Z,10.40
2019-03-02T17:01:48.787Z,10.30
2019-03-02T17:04:36.660Z,10.30
2019-03-02T17:07:37.802Z,10.30
2019-03-02T17:10:28.295Z,10.20
2019-03-02T17:13:11.449Z,10.00
2019-03-02T17:16:06.140Z,10.00
2019-03-02T17:18:43.285Z,10.00
2019-03-02T17:21:37.271Z,9.90
2019-03-02T17:24:12.559Z,9.70
2019-03-02T17:26:54.126Z,9.50
2019-03-02T17:29:31.795Z,9.40
2019-03-02T17:32:22.938Z,9.20
2019-03-02T17:35:20.601Z,9.10
2019-03-02T17:38:02.109Z,9.00
2019-03-02T17:40:42.331Z,9.00
2019-03-02T17:43:23.640Z,9.00
2019-03-02T17:46:14.182Z,8.90
2019-03-02T17:49:09.626Z,8.80
2019-03-02T17:52:04.316Z,8.60
2019-03-02T17:54:56.071Z,8.60
2019-03-02T17:57:59.977Z,8.60
2019-03-02T18:00:56.968Z,8.40
2019-03-02T18:03:35.945Z,8.40
2019-03-02T18:06:24.933Z,8.50
2019-03-02T18:09:13.973Z,8.60
2019-03-02T18:12:05.619Z,8.70
2019-03-02T18:14:40.931Z,8.80
2019-03-02T18:17:20.590Z,8.90
2019-03-02T18:19:50.765Z,8.90
2019-03-02T18:22:20.842Z,8.90
2019-03-02T18:24:50.782Z,8.80
2019-03-02T18:27:20.813Z,8.90
2019-03-02T18:29:50.872Z,9.00
2019-03-02T18:32:21.146Z,9.00
2019-03-02T18:34:51.112Z,9.00
2019-03-02T18:37:21.019Z,8.90
2019-03-02T18:39:51.183Z,8.80
2019-03-02T18:42:21.253Z,8.80
2019-03-02T18:44:54.638Z,8.80
2019-03-02T18:47:25.941Z,8.80
2019-03-02T18:50:02.814Z,8.90
2019-03-02T18:52:53.796Z,8.90
2019-03-02T18:55:22.398Z,8.90
2019-03-02T18:57:53.853Z,8.90
2019-03-02T19:00:27.060Z,8.90
2019-03-02T19:02:56.973Z,8.90
2019-03-02T19:05:29.093Z,8.90
2019-03-02T19:08:01.236Z,9.00
2019-03-02T19:10:31.629Z,9.00
2019-03-02T19:13:05.053Z,8.90
2019-03-02T19:15:33.648Z,8.90
2019-03-02T19:18:03.740Z,9.00
2019-03-02T19:20:33.755Z,9.00
2019-03-02T19:23:03.667Z,9.00
2019-03-02T19:25:33.648Z,9.00
2019-03-02T19:28:03.562Z,9.00
2019-03-02T20:03:36.053Z,8.80
2019-03-02T20:06:06.268Z,8.80
2019-03-02T20:23:37.579Z,8.90
2019-03-02T20:26:07.632Z,8.80
2019-03-02T20:28:37.595Z,8.70
2019-03-02T20:31:08.321Z,8.80
2019-03-02T20:33:38.242Z,8.90
2019-03-02T20:36:08.316Z,8.70
2019-03-02T20:42:23.399Z,8.80
2019-03-02T20:44:53.411Z,8.70
2019-03-02T20:54:43.722Z,8.30
2019-03-02T20:57:13.758Z,8.20
2019-03-02T20:59:43.665Z,8.20
2019-03-02T21:02:13.611Z,8.10
2019-03-02T21:04:43.527Z,8.10
2019-03-02T21:07:13.447Z,8.10
2019-03-02T21:09:43.361Z,8.20
2019-03-02T21:12:13.715Z,8.10
2019-03-02T21:14:43.676Z,8.10
2019-03-02T21:17:13.591Z,8.10
2019-03-02T21:19:43.663Z,8.20
2019-03-02T21:22:13.594Z,8.10
2019-03-02T21:28:28.389Z,8.00
2019-03-02T21:38:36.608Z,8.10
2019-03-02T21:58:07.823Z,7.90
2019-03-02T22:00:37.813Z,8.00
2019-03-02T22:03:07.839Z,8.00
2019-03-02T22:05:38.215Z,8.10
2019-03-02T22:08:08.485Z,8.00
2019-03-02T22:10:43.919Z,8.00
2019-03-02T22:13:13.930Z,8.10
2019-03-02T22:15:43.823Z,8.10
2019-03-02T22:18:13.773Z,8.10
2019-03-02T22:20:43.791Z,8.10
2019-03-02T22:23:13.722Z,8.20
2019-03-02T22:25:43.650Z,8.20
2019-03-02T22:28:13.582Z,8.20
2019-03-02T22:30:43.494Z,8.10
2019-03-02T22:33:13.509Z,8.10
2019-03-02T22:35:43.434Z,8.10
2019-03-02T22:38:13.363Z,8.10
2019-03-02T22:40:43.314Z,8.10
2019-03-02T22:43:13.321Z,8.20
2019-03-02T22:45:43.254Z,8.30
2019-03-02T22:48:13.393Z,8.20
2019-03-02T22:50:43.345Z,8.30
2019-03-02T22:53:13.263Z,8.30
2019-03-02T22:55:43.174Z,8.30
2019-03-02T22:58:13.114Z,8.40
2019-03-02T23:01:29.787Z,8.50
2019-03-02T23:03:59.740Z,8.50
2019-03-02T23:06:29.646Z,8.30
2019-03-02T23:08:59.637Z,8.20
2019-03-02T23:11:29.621Z,8.20
2019-03-02T23:13:59.547Z,8.10
2019-03-02T23:16:29.540Z,8.20
2019-03-02T23:18:59.456Z,8.30
2019-03-02T23:21:29.367Z,8.40
2019-03-02T23:23:59.276Z,8.30
2019-03-02T23:26:29.184Z,8.30
2019-03-02T23:28:59.101Z,8.40
2019-03-02T23:31:29.076Z,8.30
2019-03-02T23:33:58.992Z,8.30
2019-03-02T23:36:28.898Z,8.30
2019-03-02T23:38:58.835Z,8.40
2019-03-02T23:41:28.827Z,8.40
2019-03-02T23:43:58.999Z,8.40
2019-03-02T23:46:29.017Z,8.40
2019-03-02T23:48:58.935Z,8.40
2019-03-02T23:51:28.912Z,8.40
2019-03-02T23:53:58.921Z,8.40
2019-03-02T23:56:28.906Z,8.40
2019-03-02T23:58:58.833Z,8.30
